createdAt,value
2023-03-29T00:00:13.555Z,155.39
2023-03-29T00:01:34.779Z,153.84
2023-03-29T00:02:14.651Z,153.91
2023-03-29T00:05:13.576Z,154.77
2023-03-29T00:06:13.568Z,154.81
2023-03-29T00:07:13.544Z,157.15
2023-03-29T00:08:13.536Z,154.05
2023-03-29T00:09:13.540Z,153.72
2023-03-29T00:10:13.538Z,154.05
2023-03-29T00:11:13.516Z,154.16
2023-03-29T00:12:13.523Z,152.10
2023-03-29T00:13:13.511Z,153.63
2023-03-29T00:14:13.518Z,154.99
2023-03-29T00:15:13.536Z,154.65
2023-03-29T00:16:13.567Z,156.49
2023-03-29T00:17:13.579Z,155.95
2023-03-29T00:18:13.631Z,152.77
2023-03-29T00:19:13.670Z,153.93
2023-03-29T00:20:13.696Z,153.30
2023-03-29T00:21:13.705Z,152.26
2023-03-29T00:22:13.748Z,150.29
2023-03-29T00:23:13.764Z,153.12
2023-03-29T00:24:13.811Z,150.97
2023-03-29T00:25:13.841Z,155.54
2023-03-29T00:26:13.897Z,153.41
2023-03-29T00:27:13.954Z,154.75
2023-03-29T00:28:14.023Z,151.83
2023-03-29T00:29:14.081Z,155.25
2023-03-29T00:30:14.124Z,154.70
2023-03-29T00:31:14.252Z,153.60
2023-03-29T00:32:14.258Z,152.69
2023-03-29T00:33:14.289Z,151.30
2023-03-29T00:34:14.355Z,153.44
2023-03-29T00:35:14.413Z,151.38
2023-03-29T00:36:14.463Z,149.65
2023-03-29T00:37:14.520Z,147.14
2023-03-29T00:38:14.594Z,151.20
2023-03-29T00:39:14.699Z,151.25
2023-03-29T00:40:14.714Z,152.04
2023-03-29T00:41:14.761Z,152.62
2023-03-29T00:42:14.843Z,151.83
2023-03-29T00:43:14.862Z,150.23
2023-03-29T00:44:14.929Z,148.16
2023-03-29T00:45:14.980Z,151.42
2023-03-29T00:46:15.057Z,149.15
2023-03-29T00:47:15.072Z,150.12
2023-03-29T00:48:15.101Z,146.88
2023-03-29T00:49:15.116Z,147.17
2023-03-29T00:50:15.138Z,145.69
2023-03-29T00:51:15.198Z,149.80
2023-03-29T00:52:15.248Z,148.46
2023-03-29T00:53:15.319Z,148.98
2023-03-29T00:54:15.475Z,149.55
2023-03-29T00:55:15.423Z,148.02
2023-03-29T00:56:15.472Z,147.13
2023-03-29T00:57:15.507Z,147.67
2023-03-29T00:58:15.541Z,148.92
2023-03-29T00:59:15.554Z,149.16
2023-03-29T01:00:15.574Z,152.31
2023-03-29T01:01:15.601Z,152.28
2023-03-29T01:02:15.688Z,152.84
2023-03-29T01:03:15.738Z,151.60
2023-03-29T01:04:15.668Z,150.09
2023-03-29T01:05:15.694Z,149.59
2023-03-29T01:06:15.709Z,152.18
2023-03-29T01:07:15.762Z,149.41
2023-03-29T01:08:15.766Z,152.29
2023-03-29T01:09:15.766Z,152.18
2023-03-29T01:10:15.804Z,155.92
2023-03-29T01:11:15.886Z,152.56
2023-03-29T01:12:15.926Z,148.82
2023-03-29T01:13:16.046Z,150.90
2023-03-29T01:14:16.057Z,148.99
2023-03-29T01:15:16.096Z,149.66
2023-03-29T01:16:16.227Z,149.16
2023-03-29T01:17:16.228Z,150.59
2023-03-29T01:18:16.253Z,150.52
2023-03-29T01:19:16.300Z,152.70
2023-03-29T01:20:16.344Z,152.23
2023-03-29T01:21:16.369Z,154.03
2023-03-29T01:22:16.404Z,153.56
2023-03-29T01:23:16.415Z,153.76
2023-03-29T01:24:16.422Z,155.84
2023-03-29T01:25:16.452Z,157.05
2023-03-29T01:26:16.483Z,155.47
2023-03-29T01:27:16.530Z,155.10
2023-03-29T01:28:16.569Z,152.42
2023-03-29T01:29:16.665Z,151.20
2023-03-29T01:30:16.698Z,152.25
2023-03-29T01:31:16.782Z,150.40
2023-03-29T01:32:16.833Z,150.91
2023-03-29T01:33:16.877Z,149.04
2023-03-29T01:34:16.920Z,151.69
2023-03-29T01:35:16.997Z,149.37
2023-03-29T01:36:17.051Z,147.17
2023-03-29T01:37:17.088Z,149.92
2023-03-29T01:38:17.147Z,151.94
2023-03-29T01:39:17.189Z,151.76
2023-03-29T01:40:17.290Z,148.53
2023-03-29T01:41:17.311Z,149.07
2023-03-29T01:42:17.369Z,150.21
2023-03-29T01:43:17.447Z,147.93
2023-03-29T01:44:17.519Z,150.34
2023-03-29T01:45:17.555Z,150.99
2023-03-29T01:46:17.649Z,150.86
2023-03-29T01:47:17.657Z,151.01
2023-03-29T01:48:17.715Z,149.49
2023-03-29T01:49:17.782Z,149.96
2023-03-29T01:50:17.821Z,150.95
2023-03-29T01:51:17.838Z,151.53
2023-03-29T01:52:17.883Z,151.55
2023-03-29T01:53:17.896Z,145.51
2023-03-29T01:54:17.909Z,146.05
2023-03-29T01:55:17.953Z,146.60
2023-03-29T01:56:17.987Z,145.14
2023-03-29T01:57:18.074Z,147.38
2023-03-29T01:58:18.055Z,145.55
2023-03-29T01:59:18.067Z,144.74
2023-03-29T02:00:18.107Z,142.73
2023-03-29T02:01:18.152Z,142.86
2023-03-29T02:02:18.241Z,144.48
2023-03-29T02:03:18.326Z,144.06
2023-03-29T02:04:18.332Z,146.11
2023-03-29T02:05:18.365Z,147.30
2023-03-29T02:06:18.436Z,142.83
2023-03-29T02:07:18.458Z,143.87
2023-03-29T02:08:18.524Z,143.94
2023-03-29T02:09:18.589Z,144.99
2023-03-29T02:10:18.645Z,141.69
2023-03-29T02:11:18.687Z,143.14
2023-03-29T02:12:18.778Z,146.09
2023-03-29T02:13:18.809Z,145.16
2023-03-29T02:14:18.833Z,142.86
2023-03-29T02:15:18.882Z,145.43
2023-03-29T02:16:19.096Z,146.16
2023-03-29T02:17:19.014Z,144.00
2023-03-29T02:18:19.011Z,141.38
2023-03-29T02:19:19.103Z,144.73
2023-03-29T02:20:20.748Z,142.64
2023-03-29T02:21:19.166Z,141.54
2023-03-29T02:22:19.222Z,141.44
2023-03-29T02:23:19.291Z,143.43
2023-03-29T02:24:19.371Z,145.92
2023-03-29T02:25:19.409Z,142.78
2023-03-29T02:26:19.441Z,140.46
2023-03-29T02:27:19.498Z,143.49
2023-03-29T02:28:19.529Z,143.42
2023-03-29T02:29:19.540Z,144.79
2023-03-29T02:30:19.566Z,142.88
2023-03-29T02:31:19.659Z,143.40
2023-03-29T02:32:19.627Z,142.87
2023-03-29T02:33:19.650Z,144.67
2023-03-29T02:34:19.647Z,141.50
2023-03-29T02:35:19.682Z,145.34
2023-03-29T02:36:19.773Z,142.38
2023-03-29T02:37:19.767Z,141.07
2023-03-29T02:38:19.835Z,138.85
2023-03-29T02:39:19.880Z,141.05
2023-03-29T02:40:19.906Z,142.88
2023-03-29T02:41:19.947Z,142.69
2023-03-29T02:42:20.011Z,141.39
2023-03-29T02:43:20.070Z,141.59
2023-03-29T02:44:20.136Z,140.83
2023-03-29T02:45:20.206Z,138.73
2023-03-29T02:46:20.281Z,137.06
2023-03-29T02:47:20.246Z,137.12
2023-03-29T02:48:20.262Z,136.49
2023-03-29T02:49:20.289Z,138.92
2023-03-29T02:50:20.362Z,136.76
2023-03-29T02:51:20.493Z,138.24
2023-03-29T02:52:20.474Z,139.11
2023-03-29T02:53:20.525Z,139.95
2023-03-29T02:54:20.565Z,140.04
2023-03-29T02:55:20.633Z,139.43
2023-03-29T02:56:20.703Z,141.35
2023-03-29T02:57:20.783Z,143.87
2023-03-29T02:58:20.801Z,140.96
2023-03-29T02:59:20.882Z,142.60
2023-03-29T03:00:20.865Z,144.32
2023-03-29T03:01:20.950Z,146.13
2023-03-29T03:02:20.987Z,145.48
2023-03-29T03:03:21.064Z,146.98
2023-03-29T03:04:20.962Z,142.89
2023-03-29T03:05:20.989Z,143.79
2023-03-29T03:06:21.015Z,144.15
2023-03-29T03:07:21.084Z,145.87
2023-03-29T03:08:21.118Z,144.89
2023-03-29T03:09:21.168Z,148.94
2023-03-29T03:10:21.239Z,148.28
2023-03-29T03:11:21.295Z,149.98
2023-03-29T03:12:21.322Z,148.04
2023-03-29T03:13:21.350Z,148.59
2023-03-29T03:14:21.350Z,150.37
2023-03-29T03:15:21.357Z,150.68
2023-03-29T03:16:21.447Z,148.26
2023-03-29T03:17:21.442Z,149.13
2023-03-29T03:18:21.439Z,151.47
2023-03-29T03:19:21.467Z,149.78
2023-03-29T03:20:22.246Z,150.97
2023-03-29T03:21:21.534Z,150.34
2023-03-29T03:22:21.544Z,150.00
2023-03-29T03:23:21.533Z,152.01
2023-03-29T03:24:21.565Z,152.92
2023-03-29T03:25:21.580Z,153.99
2023-03-29T03:26:21.627Z,154.28
2023-03-29T03:27:21.619Z,154.17
2023-03-29T03:28:21.655Z,152.99
2023-03-29T03:29:21.664Z,154.16
2023-03-29T03:30:21.695Z,152.47
2023-03-29T03:31:21.794Z,152.53
2023-03-29T03:32:21.845Z,151.68
2023-03-29T03:33:21.883Z,153.61
2023-03-29T03:34:21.946Z,153.67
2023-03-29T03:35:22.002Z,154.16
2023-03-29T03:36:22.053Z,152.82
2023-03-29T03:37:22.103Z,153.87
2023-03-29T03:38:22.181Z,154.99
2023-03-29T03:39:22.202Z,155.30
2023-03-29T03:40:22.225Z,152.53
2023-03-29T03:41:22.248Z,154.00
2023-03-29T03:42:22.263Z,152.13
2023-03-29T03:43:22.288Z,152.78
2023-03-29T03:44:22.328Z,153.46
2023-03-29T03:45:22.332Z,151.38
2023-03-29T03:46:22.397Z,152.61
2023-03-29T03:47:22.466Z,153.07
2023-03-29T03:48:22.504Z,153.40
2023-03-29T03:49:22.539Z,154.95
2023-03-29T03:50:22.588Z,155.60
2023-03-29T03:51:22.617Z,154.90
2023-03-29T03:52:22.660Z,155.84
2023-03-29T03:53:22.674Z,157.24
2023-03-29T03:54:22.692Z,155.45
2023-03-29T03:55:22.718Z,155.15
2023-03-29T03:56:22.744Z,154.68
2023-03-29T03:57:22.805Z,153.27
2023-03-29T03:58:22.798Z,153.31
2023-03-29T03:59:22.846Z,154.17
2023-03-29T04:00:22.889Z,156.08
2023-03-29T04:01:22.930Z,155.50
2023-03-29T04:02:23.044Z,156.14
2023-03-29T04:03:23.194Z,156.51
2023-03-29T04:04:23.203Z,153.82
2023-03-29T04:05:23.179Z,153.28
2023-03-29T04:06:23.214Z,156.62
2023-03-29T04:07:23.336Z,153.80
2023-03-29T04:08:23.338Z,156.32
2023-03-29T04:09:23.397Z,155.05
2023-03-29T04:10:23.454Z,155.18
2023-03-29T04:11:23.478Z,154.97
2023-03-29T04:12:23.529Z,153.47
2023-03-29T04:13:23.576Z,154.25
2023-03-29T04:14:23.648Z,152.06
2023-03-29T04:15:23.690Z,156.29
2023-03-29T04:16:23.874Z,156.67
2023-03-29T04:17:23.924Z,153.41
2023-03-29T04:18:23.997Z,155.20
2023-03-29T04:19:23.922Z,156.11
2023-03-29T04:20:23.981Z,154.79
2023-03-29T04:21:24.025Z,154.64
2023-03-29T04:22:24.096Z,152.78
2023-03-29T04:23:24.146Z,153.28
2023-03-29T04:24:24.183Z,153.43
2023-03-29T04:25:24.223Z,153.19
2023-03-29T04:26:24.275Z,153.70
2023-03-29T04:27:24.348Z,154.84
2023-03-29T04:28:24.400Z,153.61
2023-03-29T04:29:24.419Z,154.60
2023-03-29T04:30:24.472Z,155.35
2023-03-29T04:31:24.525Z,157.24
2023-03-29T04:32:24.536Z,153.27
2023-03-29T04:33:24.554Z,153.63
2023-03-29T04:34:24.581Z,154.62
2023-03-29T04:35:24.587Z,155.05
2023-03-29T04:36:24.596Z,154.35
2023-03-29T04:37:24.634Z,154.49
2023-03-29T04:38:24.692Z,156.75
2023-03-29T04:39:24.741Z,155.35
2023-03-29T04:40:24.809Z,155.41
2023-03-29T04:41:24.830Z,157.17
2023-03-29T04:42:24.856Z,154.39
2023-03-29T04:43:24.894Z,155.20
2023-03-29T04:44:24.902Z,155.45
2023-03-29T04:45:24.969Z,154.26
2023-03-29T04:46:25.052Z,154.87
2023-03-29T04:47:25.099Z,157.67
2023-03-29T04:48:25.075Z,159.61
2023-03-29T04:49:26.164Z,156.30
2023-03-29T04:50:25.127Z,155.29
2023-03-29T04:51:25.155Z,151.08
2023-03-29T04:52:25.197Z,152.16
2023-03-29T04:53:25.227Z,154.78
2023-03-29T04:54:25.231Z,154.85
2023-03-29T04:55:25.277Z,153.53
2023-03-29T04:56:25.351Z,151.61
2023-03-29T04:57:25.409Z,153.65
2023-03-29T04:58:30.645Z,157.50
2023-03-29T04:59:26.394Z,157.56
2023-03-29T05:00:25.382Z,157.82
2023-03-29T05:01:25.412Z,155.50
2023-03-29T05:02:25.408Z,155.65
2023-03-29T05:03:25.378Z,156.20
2023-03-29T05:04:25.392Z,153.62
2023-03-29T05:05:25.365Z,155.36
2023-03-29T05:06:25.352Z,157.48
2023-03-29T05:07:25.326Z,159.99
2023-03-29T05:08:25.326Z,158.60
2023-03-29T05:09:25.339Z,155.64
2023-03-29T05:10:25.312Z,156.12
2023-03-29T05:11:25.394Z,158.80
2023-03-29T05:12:25.295Z,157.96
2023-03-29T05:13:25.316Z,158.44
2023-03-29T05:14:25.302Z,157.57
2023-03-29T05:15:25.287Z,161.06
2023-03-29T05:16:25.321Z,160.94
2023-03-29T05:17:25.336Z,160.98
2023-03-29T05:18:25.312Z,157.96
2023-03-29T05:19:25.343Z,159.59
2023-03-29T05:20:25.364Z,161.79
2023-03-29T05:21:25.400Z,157.65
2023-03-29T05:22:25.429Z,156.42
2023-03-29T05:23:25.437Z,160.87
2023-03-29T05:24:25.465Z,155.47
2023-03-29T05:25:25.826Z,161.19
2023-03-29T05:26:25.537Z,157.36
2023-03-29T05:27:25.564Z,146.52
2023-03-29T05:28:25.626Z,153.97
2023-03-29T05:29:25.618Z,149.83
2023-03-29T05:30:25.685Z,156.11
2023-03-29T05:31:25.752Z,160.62
2023-03-29T05:32:25.784Z,168.41
2023-03-29T05:33:25.770Z,174.09
2023-03-29T05:34:25.866Z,170.36
2023-03-29T05:35:25.894Z,176.88
2023-03-29T05:36:25.950Z,184.63
2023-03-29T05:37:25.961Z,189.95
2023-03-29T05:38:26.005Z,197.21
2023-03-29T05:39:26.004Z,204.03
2023-03-29T05:40:26.032Z,205.40
2023-03-29T05:41:26.020Z,207.65
2023-03-29T05:42:26.019Z,206.51
2023-03-29T05:43:26.041Z,236.66
2023-03-29T05:44:26.031Z,248.89
2023-03-29T05:45:26.072Z,245.92
2023-03-29T05:46:26.080Z,236.08
2023-03-29T05:47:26.199Z,227.54
2023-03-29T05:48:26.213Z,225.78
2023-03-29T05:49:26.237Z,230.82
2023-03-29T05:50:26.329Z,234.38
2023-03-29T05:51:26.349Z,233.71
2023-03-29T05:52:26.341Z,233.70
2023-03-29T05:53:26.426Z,232.74
2023-03-29T05:54:26.496Z,233.42
2023-03-29T05:55:26.551Z,232.01
2023-03-29T05:56:26.630Z,232.86
2023-03-29T05:57:26.683Z,230.71
2023-03-29T05:58:26.837Z,229.79
2023-03-29T05:59:26.760Z,227.53
2023-03-29T06:00:26.821Z,226.68
2023-03-29T06:01:26.784Z,223.90
2023-03-29T06:02:26.871Z,221.97
2023-03-29T06:03:27.015Z,220.04
2023-03-29T06:04:27.004Z,217.41
2023-03-29T06:05:26.939Z,214.89
2023-03-29T06:06:26.939Z,203.51
2023-03-29T06:07:26.959Z,209.98
2023-03-29T06:08:26.971Z,213.19
2023-03-29T06:09:26.980Z,215.52
2023-03-29T06:10:27.026Z,215.19
2023-03-29T06:11:27.033Z,228.62
2023-03-29T06:12:27.026Z,273.30
2023-03-29T06:13:27.041Z,255.48
2023-03-29T06:14:27.076Z,232.27
2023-03-29T06:15:27.095Z,221.13
2023-03-29T06:16:27.170Z,215.80
2023-03-29T06:17:27.120Z,215.20
2023-03-29T06:18:27.124Z,206.58
2023-03-29T06:19:27.142Z,202.36
2023-03-29T06:20:27.156Z,201.25
2023-03-29T06:21:27.199Z,198.73
2023-03-29T06:22:27.151Z,193.12
2023-03-29T06:23:27.165Z,196.05
2023-03-29T06:24:27.190Z,196.81
2023-03-29T06:25:27.161Z,197.32
2023-03-29T06:26:27.214Z,198.14
2023-03-29T06:27:27.258Z,198.90
2023-03-29T06:28:27.287Z,198.53
2023-03-29T06:29:27.352Z,197.51
2023-03-29T06:30:27.474Z,199.01
2023-03-29T06:31:27.509Z,189.21
2023-03-29T06:32:27.870Z,185.29
2023-03-29T06:33:27.576Z,172.25
2023-03-29T06:34:27.612Z,180.60
2023-03-29T06:35:27.673Z,188.09
2023-03-29T06:36:27.718Z,190.40
2023-03-29T06:37:27.804Z,195.40
2023-03-29T06:38:27.836Z,201.53
2023-03-29T06:39:27.893Z,202.53
2023-03-29T06:40:27.929Z,205.91
2023-03-29T06:41:27.961Z,206.50
2023-03-29T06:42:27.996Z,209.24
2023-03-29T06:43:28.044Z,212.01
2023-03-29T06:44:28.054Z,212.04
2023-03-29T06:45:29.338Z,213.31
2023-03-29T06:46:28.397Z,213.34
2023-03-29T06:47:28.390Z,213.99
2023-03-29T06:48:28.130Z,218.90
2023-03-29T06:49:28.162Z,224.68
2023-03-29T06:50:28.140Z,224.61
2023-03-29T06:51:28.181Z,217.56
2023-03-29T06:52:28.334Z,216.73
2023-03-29T06:53:28.200Z,216.04
2023-03-29T06:54:28.209Z,216.51
2023-03-29T06:55:28.233Z,215.65
2023-03-29T06:56:28.267Z,216.48
2023-03-29T06:57:28.385Z,215.19
2023-03-29T06:58:28.295Z,214.31
2023-03-29T06:59:28.286Z,215.38
2023-03-29T07:00:28.430Z,214.12
2023-03-29T07:01:28.411Z,253.42
2023-03-29T07:02:28.483Z,259.69
2023-03-29T07:03:28.490Z,227.68
2023-03-29T07:04:28.555Z,212.17
2023-03-29T07:05:28.612Z,207.90
2023-03-29T07:06:28.647Z,206.47
2023-03-29T07:07:28.895Z,205.57
2023-03-29T07:08:28.678Z,206.86
2023-03-29T07:09:28.643Z,204.63
2023-03-29T07:10:28.712Z,204.77
2023-03-29T07:11:28.736Z,203.07
2023-03-29T07:12:28.831Z,203.35
2023-03-29T07:13:28.811Z,202.75
2023-03-29T07:14:28.906Z,202.28
2023-03-29T07:15:28.920Z,201.98
2023-03-29T07:16:29.016Z,201.69
2023-03-29T07:17:29.397Z,199.28
2023-03-29T07:18:29.086Z,197.61
2023-03-29T07:19:29.152Z,197.05
2023-03-29T07:20:29.251Z,197.75
2023-03-29T07:21:29.275Z,194.91
2023-03-29T07:22:29.373Z,193.77
2023-03-29T07:23:29.376Z,194.44
2023-03-29T07:24:29.433Z,193.69
2023-03-29T07:25:29.490Z,189.12
2023-03-29T07:26:30.258Z,184.48
2023-03-29T07:27:29.869Z,182.45
2023-03-29T07:28:29.866Z,187.51
2023-03-29T07:29:29.634Z,191.25
2023-03-29T07:30:31.466Z,186.77
2023-03-29T07:31:29.629Z,187.16
2023-03-29T07:32:29.709Z,188.18
2023-03-29T07:33:29.957Z,190.84
2023-03-29T07:34:29.614Z,175.52
2023-03-29T07:35:29.616Z,162.62
2023-03-29T07:36:29.614Z,148.49
2023-03-29T07:37:29.848Z,136.98
2023-03-29T07:38:29.676Z,128.90
2023-03-29T07:39:29.786Z,197.28
2023-03-29T07:40:29.797Z,224.45
2023-03-29T07:41:29.830Z,191.13
2023-03-29T07:42:29.913Z,160.19
2023-03-29T07:43:29.943Z,158.58
2023-03-29T07:44:29.971Z,169.07
2023-03-29T07:45:30.062Z,176.72
2023-03-29T07:46:30.109Z,180.81
2023-03-29T07:47:30.199Z,183.07
2023-03-29T07:48:30.198Z,180.30
2023-03-29T07:49:30.370Z,174.30
2023-03-29T07:50:30.305Z,163.71
2023-03-29T07:51:30.345Z,164.38
2023-03-29T07:52:30.414Z,163.16
2023-03-29T07:53:30.480Z,168.15
2023-03-29T07:54:30.578Z,171.86
2023-03-29T07:55:30.602Z,163.16
2023-03-29T07:56:30.618Z,158.62
2023-03-29T07:57:30.687Z,180.69
2023-03-29T07:58:30.644Z,173.13
2023-03-29T07:59:30.896Z,198.76
2023-03-29T08:00:30.892Z,175.65
2023-03-29T08:01:30.777Z,160.80
2023-03-29T08:02:30.778Z,150.60
2023-03-29T08:03:30.852Z,150.52
2023-03-29T08:04:30.838Z,136.52
2023-03-29T08:05:40.748Z,134.19
2023-03-29T08:06:31.860Z,127.32
2023-03-29T08:07:30.859Z,111.45
2023-03-29T08:08:30.843Z,114.19
2023-03-29T08:09:30.828Z,110.97
2023-03-29T08:10:30.825Z,92.29
2023-03-29T08:11:30.826Z,98.99
2023-03-29T08:12:30.840Z,89.08
2023-03-29T08:13:30.803Z,79.05
2023-03-29T08:14:30.824Z,75.75
2023-03-29T08:15:30.896Z,82.13
2023-03-29T08:16:30.817Z,74.16
2023-03-29T08:17:30.943Z,79.78
2023-03-29T08:18:32.843Z,98.42
2023-03-29T08:19:30.820Z,115.65
2023-03-29T08:20:30.870Z,124.58
2023-03-29T08:21:30.797Z,138.74
2023-03-29T08:22:30.809Z,144.60
2023-03-29T08:23:30.770Z,149.85
2023-03-29T08:24:30.770Z,151.46
2023-03-29T08:25:30.924Z,153.30
2023-03-29T08:26:30.770Z,163.53
2023-03-29T08:27:30.746Z,175.24
2023-03-29T08:28:30.750Z,178.41
2023-03-29T08:29:30.727Z,186.32
2023-03-29T08:30:30.751Z,189.91
2023-03-29T08:31:30.777Z,193.20
2023-03-29T08:32:30.807Z,196.71
2023-03-29T08:33:30.722Z,195.01
2023-03-29T08:34:30.735Z,194.02
2023-03-29T08:35:30.689Z,192.49
2023-03-29T08:36:30.684Z,178.57
2023-03-29T08:37:30.711Z,191.33
2023-03-29T08:38:30.709Z,195.56
2023-03-29T08:39:30.677Z,197.29
2023-03-29T08:40:30.667Z,199.01
2023-03-29T08:41:30.664Z,203.23
2023-03-29T08:42:30.643Z,204.57
2023-03-29T08:43:30.897Z,203.36
2023-03-29T08:44:30.628Z,202.26
2023-03-29T08:45:30.652Z,194.78
2023-03-29T08:46:35.178Z,190.00
2023-03-29T08:47:31.674Z,188.22
2023-03-29T08:48:30.630Z,180.70
2023-03-29T08:49:30.608Z,181.10
2023-03-29T08:50:30.615Z,182.96
2023-03-29T08:51:30.646Z,184.86
2023-03-29T08:52:30.581Z,190.61
2023-03-29T08:53:30.584Z,195.79
2023-03-29T08:54:30.569Z,197.67
2023-03-29T08:55:30.562Z,199.91
2023-03-29T08:56:32.842Z,196.30
2023-03-29T08:57:30.560Z,194.31
2023-03-29T08:58:30.572Z,188.47
2023-03-29T08:59:30.558Z,188.76
2023-03-29T09:00:30.560Z,181.64
2023-03-29T09:01:30.560Z,176.89
2023-03-29T09:02:30.615Z,181.87
2023-03-29T09:03:30.610Z,177.83
2023-03-29T09:04:30.515Z,178.39
2023-03-29T09:05:30.508Z,174.02
2023-03-29T09:06:30.483Z,168.64
2023-03-29T09:07:30.494Z,171.68
2023-03-29T09:08:30.527Z,173.49
2023-03-29T09:09:30.494Z,171.54
2023-03-29T09:10:30.519Z,162.92
2023-03-29T09:11:30.470Z,152.28
2023-03-29T09:12:30.452Z,155.16
2023-03-29T09:13:30.493Z,164.85
2023-03-29T09:14:30.430Z,163.57
2023-03-29T09:15:30.435Z,167.09
2023-03-29T09:16:30.519Z,176.48
2023-03-29T09:17:30.912Z,177.17
2023-03-29T09:18:30.437Z,176.53
2023-03-29T09:19:30.396Z,176.87
2023-03-29T09:20:30.418Z,175.53
2023-03-29T09:21:30.393Z,175.67
2023-03-29T09:22:30.390Z,174.23
2023-03-29T09:23:30.399Z,175.85
2023-03-29T09:24:30.434Z,175.77
2023-03-29T09:25:31.857Z,172.08
2023-03-29T09:26:30.367Z,163.35
2023-03-29T09:27:30.462Z,163.83
2023-03-29T09:28:30.375Z,147.63
2023-03-29T09:29:30.333Z,150.42
2023-03-29T09:30:30.369Z,141.90
2023-03-29T09:31:30.420Z,130.97
2023-03-29T09:32:30.368Z,139.94
2023-03-29T09:33:30.414Z,147.63
2023-03-29T09:34:30.289Z,157.55
2023-03-29T09:35:30.330Z,163.88
2023-03-29T09:36:30.285Z,167.22
2023-03-29T09:37:30.275Z,173.39
2023-03-29T09:38:30.275Z,177.70
2023-03-29T09:39:30.269Z,189.02
2023-03-29T09:40:30.266Z,228.36
2023-03-29T09:41:30.240Z,215.36
2023-03-29T09:42:30.254Z,207.98
2023-03-29T09:43:30.233Z,211.05
2023-03-29T09:44:31.668Z,221.89
2023-03-29T09:45:30.261Z,242.45
2023-03-29T09:46:30.223Z,314.90
2023-03-29T09:47:30.266Z,325.98
2023-03-29T09:48:30.394Z,279.98
2023-03-29T09:49:30.220Z,238.05
2023-03-29T09:50:31.929Z,220.71
2023-03-29T09:51:30.187Z,212.24
2023-03-29T09:52:30.178Z,211.62
2023-03-29T09:53:30.169Z,252.97
2023-03-29T09:54:30.255Z,263.66
2023-03-29T09:55:30.193Z,239.31
2023-03-29T09:56:30.141Z,222.46
2023-03-29T09:57:30.219Z,211.07
2023-03-29T09:58:30.146Z,203.66
2023-03-29T09:59:30.162Z,199.46
2023-03-29T10:00:30.166Z,192.95
2023-03-29T10:01:30.129Z,188.49
2023-03-29T10:02:30.127Z,184.63
2023-03-29T10:03:30.413Z,181.93
2023-03-29T10:04:30.453Z,180.63
2023-03-29T10:05:30.111Z,179.44
2023-03-29T10:06:30.072Z,178.68
2023-03-29T10:07:30.099Z,181.35
2023-03-29T10:08:30.077Z,162.46
2023-03-29T10:09:30.425Z,168.91
2023-03-29T10:10:30.043Z,168.09
2023-03-29T10:11:30.089Z,150.89
2023-03-29T10:12:30.059Z,135.61
2023-03-29T10:13:30.055Z,140.41
2023-03-29T10:14:30.132Z,123.50
2023-03-29T10:15:30.666Z,118.46
2023-03-29T10:16:30.283Z,123.18
2023-03-29T10:17:30.198Z,131.59
2023-03-29T10:18:30.223Z,123.07
2023-03-29T10:19:30.418Z,121.91
2023-03-29T10:20:30.266Z,124.37
2023-03-29T10:21:30.260Z,123.69
2023-03-29T10:22:30.257Z,121.87
2023-03-29T10:23:30.281Z,121.77
2023-03-29T10:24:30.444Z,121.62
2023-03-29T10:25:30.357Z,126.98
2023-03-29T10:26:30.411Z,127.79
2023-03-29T10:27:30.601Z,131.99
2023-03-29T10:28:30.553Z,122.71
2023-03-29T10:29:30.613Z,106.87
2023-03-29T10:30:30.685Z,115.08
2023-03-29T10:31:30.773Z,104.12
2023-03-29T10:32:30.833Z,113.37
2023-03-29T10:33:30.848Z,103.91
2023-03-29T10:34:30.877Z,110.70
2023-03-29T10:35:30.982Z,87.80
2023-03-29T10:36:30.940Z,57.19
2023-03-29T10:37:30.997Z,37.66
2023-03-29T10:38:31.085Z,29.30
2023-03-29T10:39:31.143Z,25.70
2023-03-29T10:40:31.162Z,24.58
2023-03-29T10:41:31.119Z,32.25
2023-03-29T10:42:31.105Z,34.28
2023-03-29T10:43:31.114Z,44.74
2023-03-29T10:44:32.910Z,55.61
2023-03-29T10:45:31.114Z,68.17
2023-03-29T10:46:31.166Z,78.39
2023-03-29T10:47:31.146Z,85.59
2023-03-29T10:48:31.174Z,96.98
2023-03-29T10:49:31.217Z,94.02
2023-03-29T10:50:31.206Z,96.04
2023-03-29T10:51:31.244Z,75.96
2023-03-29T10:52:31.270Z,54.64
2023-03-29T10:53:31.309Z,37.23
2023-03-29T10:54:31.365Z,28.86
2023-03-29T10:55:31.299Z,25.00
2023-03-29T10:56:31.328Z,25.70
2023-03-29T10:57:31.388Z,26.03
2023-03-29T10:58:31.429Z,25.34
2023-03-29T10:59:31.943Z,27.08
2023-03-29T11:00:31.952Z,28.39
2023-03-29T11:01:31.626Z,52.29
2023-03-29T11:02:31.663Z,55.10
2023-03-29T11:03:31.840Z,52.60
2023-03-29T11:04:31.713Z,52.72
2023-03-29T11:05:31.712Z,63.88
2023-03-29T11:06:31.728Z,61.22
2023-03-29T11:07:31.782Z,72.26
2023-03-29T11:08:32.103Z,83.13
2023-03-29T11:09:31.816Z,87.07
2023-03-29T11:10:31.802Z,93.72
2023-03-29T11:11:31.808Z,97.28
2023-03-29T11:12:31.807Z,99.11
2023-03-29T11:13:31.833Z,103.17
2023-03-29T11:14:31.887Z,108.39
2023-03-29T11:15:32.487Z,108.65
2023-03-29T11:16:32.006Z,112.29
2023-03-29T11:17:32.078Z,114.55
2023-03-29T11:18:32.100Z,117.56
2023-03-29T11:19:32.115Z,120.07
2023-03-29T11:20:32.134Z,111.92
2023-03-29T11:21:32.180Z,121.45
2023-03-29T11:22:32.143Z,105.92
2023-03-29T11:23:32.177Z,106.46
2023-03-29T11:24:32.157Z,115.85
2023-03-29T11:25:32.182Z,115.54
2023-03-29T11:26:32.157Z,120.33
2023-03-29T11:27:32.162Z,130.47
2023-03-29T11:28:32.190Z,128.75
2023-03-29T11:29:32.179Z,128.58
2023-03-29T11:30:32.225Z,132.79
2023-03-29T11:31:32.379Z,134.28
2023-03-29T11:32:32.314Z,132.32
2023-03-29T11:33:32.350Z,129.51
2023-03-29T11:34:32.396Z,129.52
2023-03-29T11:35:32.464Z,131.67
2023-03-29T11:36:32.473Z,132.95
2023-03-29T11:37:32.543Z,133.74
2023-03-29T11:38:32.604Z,133.93
2023-03-29T11:39:32.667Z,136.41
2023-03-29T11:40:32.738Z,136.20
2023-03-29T11:41:32.802Z,137.47
2023-03-29T11:42:32.844Z,136.50
2023-03-29T11:43:32.903Z,136.18
2023-03-29T11:44:32.950Z,137.90
2023-03-29T11:45:33.481Z,138.24
2023-03-29T11:46:33.122Z,138.70
2023-03-29T11:47:33.137Z,139.83
2023-03-29T11:48:33.154Z,139.79
2023-03-29T11:49:33.182Z,140.78
2023-03-29T11:50:36.022Z,140.31
2023-03-29T11:51:33.192Z,141.26
2023-03-29T11:52:33.222Z,141.59
2023-03-29T11:53:33.185Z,141.19
2023-03-29T11:54:33.196Z,140.08
2023-03-29T11:55:33.464Z,140.49
2023-03-29T11:56:33.171Z,139.54
2023-03-29T11:57:33.466Z,139.72
2023-03-29T11:58:33.216Z,140.41
2023-03-29T11:59:33.170Z,139.72
2023-03-29T12:00:33.152Z,140.35
2023-03-29T12:01:33.138Z,138.89
2023-03-29T12:02:33.540Z,137.77
2023-03-29T12:03:33.154Z,136.52
2023-03-29T12:04:33.152Z,137.54
2023-03-29T12:05:33.120Z,137.05
2023-03-29T12:06:33.110Z,137.33
2023-03-29T12:07:33.128Z,136.76
2023-03-29T12:08:33.108Z,136.65
2023-03-29T12:09:33.076Z,137.39
2023-03-29T12:10:33.722Z,136.43
2023-03-29T12:11:33.076Z,137.05
2023-03-29T12:12:33.055Z,137.17
2023-03-29T12:13:33.066Z,136.98
2023-03-29T12:14:33.034Z,134.89
2023-03-29T12:15:33.027Z,134.15
2023-03-29T12:16:33.042Z,136.81
2023-03-29T12:17:33.074Z,135.68
2023-03-29T12:18:33.023Z,135.95
2023-03-29T12:19:33.009Z,135.42
2023-03-29T12:20:33.049Z,135.57
2023-03-29T12:21:33.007Z,135.53
2023-03-29T12:22:32.986Z,133.62
2023-03-29T12:23:32.992Z,134.60
2023-03-29T12:24:33.008Z,134.16
2023-03-29T12:25:32.973Z,133.65
2023-03-29T12:26:32.967Z,134.06
2023-03-29T12:27:32.974Z,133.56
2023-03-29T12:28:32.957Z,132.52
2023-03-29T12:29:32.953Z,132.56
2023-03-29T12:30:34.361Z,132.39
2023-03-29T12:31:33.018Z,131.37